createdAt,value
2023-05-13T00:02:38.995Z,3.07
2023-05-13T00:05:25.142Z,2.60
2023-05-13T00:08:12.216Z,2.80
2023-05-13T00:10:58.404Z,2.53
2023-05-13T00:13:45.001Z,2.70
2023-05-13T00:16:31.852Z,3.30
2023-05-13T00:19:18.124Z,2.67
2023-05-13T00:22:04.616Z,3.00
2023-05-13T00:24:51.275Z,2.77
2023-05-13T00:27:37.837Z,2.93
2023-05-13T00:30:24.174Z,2.87
2023-05-13T00:33:11.369Z,4.50
2023-05-13T00:35:57.661Z,2.90
2023-05-13T00:38:44.229Z,3.50
2023-05-13T00:41:31.130Z,3.60
2023-05-13T00:44:17.308Z,3.20
2023-05-13T00:47:05.277Z,2.97
2023-05-13T00:49:52.113Z,2.93
2023-05-13T00:52:39.895Z,2.90
2023-05-13T00:55:26.656Z,3.20
2023-05-13T00:58:13.581Z,2.70
2023-05-13T01:01:12.319Z,3.53
2023-05-13T01:04:27.446Z,3.27
2023-05-13T01:07:43.106Z,2.90
2023-05-13T01:10:37.460Z,3.10
2023-05-13T01:13:28.517Z,3.03
2023-05-13T01:16:25.339Z,2.87
2023-05-13T01:19:46.713Z,3.00
2023-05-13T01:22:33.495Z,2.80
2023-05-13T01:25:19.876Z,3.60
2023-05-13T01:28:08.813Z,3.17
2023-05-13T01:30:57.614Z,3.30
2023-05-13T01:33:45.856Z,3.30
2023-05-13T01:36:32.666Z,3.33
2023-05-13T01:39:20.109Z,4.10
2023-05-13T01:42:09.523Z,3.90
2023-05-13T01:44:56.091Z,3.53
2023-05-13T01:47:42.846Z,3.40
2023-05-13T01:50:29.660Z,3.73
2023-05-13T01:53:16.205Z,4.27
2023-05-13T01:56:02.552Z,3.87
2023-05-13T01:58:49.238Z,3.67
2023-05-13T02:01:35.779Z,4.37
2023-05-13T02:04:22.170Z,3.70
2023-05-13T02:07:08.868Z,3.83
2023-05-13T02:09:59.562Z,3.67
2023-05-13T02:12:46.062Z,3.90
2023-05-13T02:15:32.612Z,4.40
2023-05-13T02:18:18.998Z,4.20
2023-05-13T02:21:05.604Z,3.83
2023-05-13T02:23:52.275Z,3.83
2023-05-13T02:26:38.537Z,4.07
2023-05-13T02:29:24.959Z,4.23
2023-05-13T02:32:12.438Z,4.43
2023-05-13T02:34:58.716Z,4.73
2023-05-13T02:37:46.467Z,4.27
2023-05-13T02:40:32.726Z,4.50
2023-05-13T02:43:19.533Z,4.03
2023-05-13T02:46:13.865Z,4.33
2023-05-13T02:49:00.357Z,4.27
2023-05-13T02:51:50.286Z,4.40
2023-05-13T02:54:40.188Z,4.70
2023-05-13T02:57:26.809Z,4.60
2023-05-13T03:00:14.824Z,4.47
2023-05-13T03:03:01.196Z,4.37
2023-05-13T03:05:47.845Z,4.50
2023-05-13T03:08:34.019Z,4.40
2023-05-13T03:11:21.038Z,4.40
2023-05-13T03:14:07.242Z,4.00
2023-05-13T03:16:54.139Z,4.47
2023-05-13T03:19:40.935Z,4.10
2023-05-13T03:22:30.088Z,4.50
2023-05-13T03:25:16.557Z,4.60
2023-05-13T03:28:10.838Z,4.17
2023-05-13T03:31:02.416Z,4.67
2023-05-13T03:33:52.059Z,5.13
2023-05-13T03:36:38.831Z,4.90
2023-05-13T03:39:26.476Z,4.87
2023-05-13T03:42:13.123Z,5.77
2023-05-13T03:44:59.368Z,4.67
2023-05-13T03:47:45.784Z,5.27
2023-05-13T03:50:35.707Z,4.90
2023-05-13T03:53:24.530Z,5.03
2023-05-13T03:56:14.406Z,4.40
2023-05-13T03:59:03.844Z,4.83
2023-05-13T04:01:50.342Z,5.10
2023-05-13T04:04:36.972Z,5.23
2023-05-13T04:07:23.361Z,4.67
2023-05-13T04:10:12.326Z,4.17
2023-05-13T04:13:00.229Z,4.70
2023-05-13T04:15:48.003Z,4.63
2023-05-13T04:18:34.174Z,4.70
2023-05-13T04:21:21.344Z,4.80
2023-05-13T04:24:08.225Z,4.00
2023-05-13T04:26:54.665Z,4.20
2023-05-13T04:29:41.181Z,4.70
2023-05-13T04:32:27.869Z,4.97
2023-05-13T04:35:15.317Z,4.10
2023-05-13T04:38:05.200Z,4.13
2023-05-13T04:40:52.426Z,4.23
2023-05-13T04:43:49.676Z,3.90
2023-05-13T04:46:38.149Z,3.87
2023-05-13T04:49:24.554Z,4.23
2023-05-13T04:52:13.044Z,3.57
2023-05-13T04:54:59.534Z,3.90
2023-05-13T04:57:46.860Z,3.70
2023-05-13T05:00:33.633Z,3.33
2023-05-13T05:03:19.735Z,3.10
2023-05-13T05:06:06.277Z,3.67
2023-05-13T05:08:53.118Z,3.03
2023-05-13T05:11:39.825Z,3.53
2023-05-13T05:14:26.410Z,3.17
2023-05-13T05:17:13.642Z,3.30
2023-05-13T05:20:00.102Z,3.60
2023-05-13T05:22:47.126Z,3.67
2023-05-13T05:25:33.886Z,3.27
2023-05-13T05:28:20.050Z,3.53
2023-05-13T05:31:06.653Z,3.67
2023-05-13T05:33:55.025Z,3.03
2023-05-13T05:36:41.389Z,2.73
2023-05-13T05:39:28.312Z,3.20
2023-05-13T05:42:14.762Z,3.10
2023-05-13T05:45:01.958Z,2.80
2023-05-13T05:47:48.471Z,3.03
2023-05-13T05:50:37.323Z,2.60
2023-05-13T05:53:27.537Z,2.90
2023-05-13T05:56:14.289Z,3.73
2023-05-13T05:59:01.748Z,2.73
2023-05-13T06:01:48.491Z,3.07
2023-05-13T06:04:34.840Z,2.53
2023-05-13T06:07:21.104Z,2.70
2023-05-13T06:10:08.609Z,2.40
2023-05-13T06:12:55.413Z,2.70
2023-05-13T06:15:41.664Z,2.40
2023-05-13T06:18:28.193Z,3.07
2023-05-13T06:21:14.251Z,2.50
2023-05-13T06:24:02.742Z,2.60
2023-05-13T06:26:49.171Z,2.90
2023-05-13T06:29:35.542Z,2.80
2023-05-13T06:32:21.778Z,2.77
2023-05-13T06:35:08.435Z,2.40
2023-05-13T06:37:55.830Z,3.00
2023-05-13T06:40:42.193Z,2.80
2023-05-13T06:43:28.904Z,2.37
2023-05-13T06:46:18.339Z,2.60
2023-05-13T06:49:04.814Z,2.57
2023-05-13T06:51:51.470Z,2.70
2023-05-13T06:54:37.683Z,3.23
2023-05-13T06:57:32.246Z,2.90
2023-05-13T07:00:22.713Z,2.50
2023-05-13T07:03:09.216Z,2.87
2023-05-13T07:05:55.647Z,2.37
2023-05-13T07:08:42.013Z,2.63
2023-05-13T07:11:28.995Z,2.90
2023-05-13T07:14:15.294Z,2.90
2023-05-13T07:17:02.225Z,3.27
2023-05-13T07:19:49.014Z,3.30
2023-05-13T07:22:35.897Z,3.13
2023-05-13T07:25:22.346Z,3.03
2023-05-13T07:28:08.578Z,3.10
2023-05-13T07:30:55.236Z,2.53
2023-05-13T07:33:41.830Z,2.70
2023-05-13T07:36:28.169Z,3.13
2023-05-13T07:39:14.487Z,3.97
2023-05-13T07:42:01.246Z,2.63
2023-05-13T07:44:47.417Z,2.53
2023-05-13T07:47:34.020Z,2.87
2023-05-13T07:50:20.914Z,3.30
2023-05-13T07:53:07.388Z,2.87
2023-05-13T07:55:54.174Z,3.70
2023-05-13T07:58:40.816Z,3.20
2023-05-13T08:01:27.326Z,2.60
2023-05-13T08:04:14.023Z,3.30
2023-05-13T08:07:01.535Z,3.13
2023-05-13T08:09:47.820Z,3.10
2023-05-13T08:12:34.285Z,2.57
2023-05-13T08:15:20.966Z,2.90
2023-05-13T08:18:07.669Z,2.73
2023-05-13T08:20:54.208Z,2.70
2023-05-13T08:23:45.716Z,2.43
2023-05-13T08:26:33.749Z,2.70
2023-05-13T08:29:19.947Z,2.50
2023-05-13T08:32:06.306Z,3.03
2023-05-13T08:34:53.420Z,2.90
2023-05-13T08:37:39.873Z,3.63
2023-05-13T08:40:26.302Z,3.20
2023-05-13T08:43:16.120Z,3.20
2023-05-13T08:46:04.286Z,2.53
2023-05-13T08:48:51.482Z,2.60
2023-05-13T08:51:37.965Z,2.23
2023-05-13T08:54:25.458Z,3.17
2023-05-13T08:57:11.667Z,3.10
2023-05-13T08:59:58.004Z,2.80
2023-05-13T09:02:44.561Z,2.60
2023-05-13T09:05:32.000Z,2.60
2023-05-13T09:08:18.630Z,2.77
2023-05-13T09:11:07.822Z,3.13
2023-05-13T09:14:01.981Z,3.00
2023-05-13T09:16:48.493Z,2.97
2023-05-13T09:19:35.682Z,2.87
2023-05-13T09:22:22.815Z,2.40
2023-05-13T09:25:12.737Z,2.50
2023-05-13T09:28:04.050Z,3.30
2023-05-13T09:30:55.151Z,2.50
2023-05-13T09:33:52.229Z,2.80
2023-05-13T09:36:38.940Z,2.90
2023-05-13T09:39:25.500Z,2.90
2023-05-13T09:42:19.142Z,2.87
2023-05-13T09:45:07.070Z,3.63
2023-05-13T09:47:55.098Z,2.50
2023-05-13T09:50:53.184Z,2.80
2023-05-13T09:53:40.883Z,3.00
2023-05-13T09:56:30.889Z,2.60
2023-05-13T09:59:17.866Z,2.40
2023-05-13T10:02:06.737Z,3.17
2023-05-13T10:04:58.156Z,2.70
2023-05-13T10:07:44.595Z,2.70
2023-05-13T10:10:32.952Z,2.40
2023-05-13T10:13:23.590Z,2.77
2023-05-13T10:16:10.165Z,2.50
2023-05-13T10:18:58.704Z,2.50
2023-05-13T10:21:45.920Z,2.23
2023-05-13T10:24:33.346Z,2.10
2023-05-13T10:27:22.729Z,2.50
2023-05-13T10:30:10.428Z,2.40
2023-05-13T10:32:57.051Z,2.43
2023-05-13T10:35:56.534Z,2.63
2023-05-13T10:38:52.079Z,2.83
2023-05-13T10:42:18.130Z,2.67
2023-05-13T10:45:05.916Z,2.57
2023-05-13T10:47:52.368Z,2.50
2023-05-13T10:50:39.321Z,2.40
2023-05-13T10:53:31.946Z,2.63
2023-05-13T10:56:24.240Z,2.40
2023-05-13T10:59:12.705Z,2.40
2023-05-13T11:02:01.693Z,2.20
2023-05-13T11:04:59.653Z,2.53
2023-05-13T11:07:56.273Z,2.60
2023-05-13T11:10:42.935Z,2.37
2023-05-13T11:13:36.785Z,2.40
2023-05-13T11:16:24.174Z,2.60
2023-05-13T11:19:22.039Z,2.60
2023-05-13T11:22:13.848Z,2.60
2023-05-13T11:25:09.287Z,3.43
2023-05-13T11:27:55.595Z,2.90
2023-05-13T11:30:53.860Z,2.43
2023-05-13T11:34:05.508Z,2.60
2023-05-13T11:37:05.889Z,2.60
2023-05-13T11:39:52.106Z,3.43
2023-05-13T11:42:39.381Z,2.47
2023-05-13T11:45:27.117Z,2.37
2023-05-13T11:48:24.147Z,2.30
2023-05-13T11:51:10.259Z,2.03
2023-05-13T11:54:01.098Z,2.20
2023-05-13T11:56:47.563Z,2.70
2023-05-13T11:59:45.329Z,2.37
2023-05-13T12:02:37.769Z,2.40
2023-05-13T12:05:25.079Z,2.50
2023-05-13T12:08:11.841Z,2.43
2023-05-13T12:10:59.781Z,2.47
2023-05-13T12:13:46.454Z,2.30
2023-05-13T12:16:33.012Z,2.57
2023-05-13T12:19:19.878Z,2.70
2023-05-13T12:22:07.886Z,2.20
2023-05-13T12:24:54.673Z,2.07
2023-05-13T12:27:41.214Z,2.13
2023-05-13T12:30:35.337Z,2.30
2023-05-13T12:33:27.501Z,2.33
2023-05-13T12:36:33.712Z,1.97
2023-05-13T12:39:20.753Z,2.10
2023-05-13T12:42:14.312Z,2.20
2023-05-13T12:45:02.180Z,2.40
2023-05-13T12:47:50.149Z,2.07
2023-05-13T12:50:37.173Z,2.37
2023-05-13T12:53:23.720Z,2.17
2023-05-13T12:56:10.481Z,4.67
2023-05-13T12:58:57.624Z,2.10
2023-05-13T13:01:44.043Z,1.93
2023-05-13T13:04:30.816Z,2.40
2023-05-13T13:07:17.165Z,2.17
2023-05-13T13:10:05.052Z,2.10
2023-05-13T13:12:52.257Z,2.00
2023-05-13T13:15:39.358Z,2.27
2023-05-13T13:18:26.377Z,1.90
2023-05-13T13:21:12.625Z,2.40
2023-05-13T13:23:58.849Z,2.20
2023-05-13T13:26:45.074Z,2.73
2023-05-13T13:29:31.300Z,2.43
2023-05-13T13:32:17.840Z,2.47
2023-05-13T13:35:05.642Z,2.37
2023-05-13T13:37:52.287Z,2.70
2023-05-13T13:40:38.979Z,2.40
2023-05-13T13:43:25.584Z,2.40
2023-05-13T13:46:11.819Z,2.50
2023-05-13T13:48:58.440Z,2.17
2023-05-13T13:51:44.857Z,2.37
2023-05-13T13:54:31.373Z,2.40
2023-05-13T13:57:17.577Z,2.30
2023-05-13T14:00:05.014Z,2.10
2023-05-13T14:02:51.558Z,2.20
2023-05-13T14:05:38.378Z,2.20
2023-05-13T14:08:25.046Z,2.40
2023-05-13T14:11:11.556Z,2.00
2023-05-13T14:13:58.117Z,2.20
2023-05-13T14:16:44.753Z,2.60
2023-05-13T14:19:30.991Z,2.30
2023-05-13T14:22:18.234Z,2.10
2023-05-13T14:25:05.027Z,2.60
2023-05-13T14:27:51.524Z,2.70
2023-05-13T14:30:37.922Z,2.60
2023-05-13T14:33:24.297Z,2.70
2023-05-13T14:36:11.352Z,3.10
2023-05-13T14:38:58.326Z,3.10
2023-05-13T14:41:46.138Z,3.40
2023-05-13T14:44:32.480Z,2.50
2023-05-13T14:47:19.117Z,2.33
2023-05-13T14:50:06.126Z,2.60
2023-05-13T14:52:52.576Z,2.33
2023-05-13T14:55:38.925Z,2.73
2023-05-13T14:58:25.666Z,2.20
2023-05-13T15:01:11.900Z,2.10
2023-05-13T15:03:59.584Z,2.33
2023-05-13T15:06:45.934Z,2.57
2023-05-13T15:09:32.068Z,2.77
2023-05-13T15:12:18.451Z,2.57
2023-05-13T15:15:05.702Z,2.70
2023-05-13T15:17:52.514Z,2.47
2023-05-13T15:20:39.051Z,2.50
2023-05-13T15:23:25.698Z,2.80
2023-05-13T15:26:12.032Z,2.70
2023-05-13T15:28:58.248Z,2.57
2023-05-13T15:31:44.429Z,2.40
2023-05-13T15:34:30.675Z,2.53
2023-05-13T15:37:17.020Z,3.03
2023-05-13T15:40:03.399Z,2.83
2023-05-13T15:42:49.679Z,2.73
2023-05-13T15:45:36.083Z,2.73
2023-05-13T15:48:22.557Z,2.73
2023-05-13T15:51:09.056Z,3.17
2023-05-13T15:53:55.371Z,3.03
2023-05-13T15:56:41.519Z,3.10
2023-05-13T15:59:27.709Z,2.93
2023-05-13T16:02:14.138Z,3.00
2023-05-13T16:05:00.236Z,2.90
2023-05-13T16:07:46.770Z,2.80
2023-05-13T16:10:34.949Z,3.20
2023-05-13T16:13:21.744Z,3.10
2023-05-13T16:16:08.394Z,2.87
2023-05-13T16:18:54.988Z,3.33
2023-05-13T16:21:42.136Z,3.00
2023-05-13T16:24:28.622Z,3.20
2023-05-13T16:27:15.311Z,2.93
2023-05-13T16:30:03.407Z,3.10
2023-05-13T16:32:53.251Z,3.87
2023-05-13T16:35:39.764Z,3.57
2023-05-13T16:38:26.342Z,3.10
2023-05-13T16:41:12.508Z,3.00
2023-05-13T16:43:58.564Z,2.97
2023-05-13T16:46:45.027Z,3.13
2023-05-13T16:49:31.564Z,3.00
2023-05-13T16:52:18.061Z,3.20
2023-05-13T16:55:05.017Z,2.93
2023-05-13T16:57:53.465Z,3.50
2023-05-13T17:05:12.450Z,3.60
2023-05-13T17:07:58.707Z,3.50
2023-05-13T17:10:44.883Z,3.67
2023-05-13T17:13:31.417Z,4.40
2023-05-13T17:16:17.545Z,5.03
2023-05-13T17:19:03.918Z,3.13
2023-05-13T17:21:50.476Z,3.20
2023-05-13T17:24:38.467Z,4.13
2023-05-13T17:27:24.948Z,4.07
2023-05-13T17:30:11.716Z,3.73
2023-05-13T17:32:57.959Z,3.40
2023-05-13T17:35:44.164Z,3.30
2023-05-13T17:38:30.432Z,3.10
2023-05-13T17:41:17.456Z,3.57
2023-05-13T17:44:03.784Z,3.30
2023-05-13T17:46:49.931Z,3.20
2023-05-13T17:49:36.253Z,3.67
2023-05-13T17:52:22.644Z,2.77
2023-05-13T17:55:09.125Z,3.00
2023-05-13T17:57:55.630Z,3.10
2023-05-13T18:00:42.243Z,3.20
2023-05-13T18:03:28.793Z,3.00
2023-05-13T18:06:16.051Z,3.43
2023-05-13T18:09:02.732Z,4.03
2023-05-13T18:11:49.250Z,3.80
2023-05-13T18:14:35.669Z,3.67
2023-05-13T18:17:22.427Z,3.90
2023-05-13T18:20:09.132Z,3.13
2023-05-13T18:22:55.729Z,3.50
2023-05-13T18:25:54.706Z,3.00
2023-05-13T18:28:44.833Z,2.80
2023-05-13T18:31:34.656Z,2.73
2023-05-13T18:34:21.266Z,3.00
2023-05-13T18:37:07.885Z,3.03
2023-05-13T18:39:54.292Z,2.73
2023-05-13T18:42:40.413Z,2.37
2023-05-13T18:45:26.944Z,2.87
2023-05-13T18:48:13.206Z,2.80
2023-05-13T18:50:59.539Z,4.13
2023-05-13T18:53:45.723Z,3.10
2023-05-13T18:56:32.866Z,3.00
2023-05-13T18:59:19.123Z,3.03
2023-05-13T19:02:05.645Z,2.70
2023-05-13T19:04:52.021Z,3.20
2023-05-13T19:07:38.640Z,3.40
2023-05-13T19:10:24.952Z,3.20
2023-05-13T19:13:11.669Z,3.53
2023-05-13T19:15:58.869Z,3.20
2023-05-13T19:18:45.364Z,3.43
2023-05-13T19:21:31.929Z,4.03
2023-05-13T19:24:18.097Z,3.73
2023-05-13T19:27:04.704Z,3.53
2023-05-13T19:29:51.194Z,3.50
2023-05-13T19:32:37.643Z,3.47
2023-05-13T19:35:23.787Z,3.60
2023-05-13T19:38:10.057Z,4.10
2023-05-13T19:40:56.233Z,3.90
2023-05-13T19:43:42.455Z,3.97
2023-05-13T19:46:28.713Z,3.57
2023-05-13T19:49:15.091Z,3.27
2023-05-13T19:52:01.569Z,3.43
2023-05-13T19:54:48.018Z,3.70
2023-05-13T19:57:34.453Z,4.50
2023-05-13T20:00:21.596Z,4.27
2023-05-13T20:03:08.294Z,4.20
2023-05-13T20:05:54.599Z,3.80
2023-05-13T20:08:41.265Z,4.37
2023-05-13T20:11:27.839Z,4.50
2023-05-13T20:14:15.793Z,3.93
2023-05-13T20:17:02.118Z,3.80
2023-05-13T20:19:49.802Z,4.20
2023-05-13T20:22:36.071Z,5.40
2023-05-13T20:25:22.616Z,4.97
2023-05-13T20:28:09.028Z,4.33
2023-05-13T20:30:56.164Z,4.83
2023-05-13T20:33:42.837Z,4.33
2023-05-13T20:36:29.170Z,4.37
2023-05-13T20:39:15.454Z,4.50
2023-05-13T20:42:01.716Z,4.83
2023-05-13T20:44:48.351Z,5.13
2023-05-13T20:47:35.338Z,4.57
2023-05-13T20:50:22.040Z,4.83
2023-05-13T20:53:08.530Z,4.90
2023-05-13T20:55:54.943Z,5.33
2023-05-13T20:58:41.169Z,4.60
2023-05-13T21:01:27.573Z,4.37
2023-05-13T21:04:14.169Z,4.03
2023-05-13T21:07:00.810Z,4.30
2023-05-13T21:09:47.353Z,4.33
2023-05-13T21:12:33.801Z,4.83
2023-05-13T21:15:20.391Z,4.53
2023-05-13T21:18:07.296Z,4.23
2023-05-13T21:20:53.759Z,4.37
2023-05-13T21:23:42.969Z,4.37
2023-05-13T21:26:29.371Z,4.20
2023-05-13T21:29:16.825Z,4.73
2023-05-13T21:32:05.130Z,4.83
2023-05-13T21:34:51.840Z,5.03
2023-05-13T21:37:38.709Z,4.90
2023-05-13T21:40:25.007Z,4.60
2023-05-13T21:43:11.757Z,4.70
2023-05-13T21:45:58.106Z,4.50
2023-05-13T21:48:44.968Z,4.80
2023-05-13T21:51:32.585Z,5.00
2023-05-13T21:54:19.596Z,6.93
2023-05-13T21:57:05.706Z,5.57
2023-05-13T21:59:51.944Z,5.83
2023-05-13T22:02:38.647Z,5.63
2023-05-13T22:05:24.935Z,7.93
2023-05-13T22:08:11.225Z,7.53
2023-05-13T22:10:57.704Z,6.00
2023-05-13T22:13:44.020Z,5.53
2023-05-13T22:16:30.648Z,5.37
2023-05-13T22:19:17.076Z,5.30
2023-05-13T22:22:03.412Z,5.20
2023-05-13T22:24:49.482Z,5.27
2023-05-13T22:27:35.902Z,4.90
2023-05-13T22:30:22.459Z,5.60
2023-05-13T22:33:09.220Z,6.20
2023-05-13T22:35:55.625Z,4.97
2023-05-13T22:38:42.448Z,5.60
2023-05-13T22:41:28.834Z,5.53
2023-05-13T22:44:14.952Z,5.90
2023-05-13T22:47:01.481Z,5.20
2023-05-13T22:49:48.009Z,5.27
2023-05-13T22:52:35.059Z,5.20
2023-05-13T22:55:21.477Z,5.30
2023-05-13T22:58:08.142Z,5.90
2023-05-13T23:00:54.428Z,4.93
2023-05-13T23:03:40.784Z,5.73
2023-05-13T23:06:27.564Z,5.30
2023-05-13T23:09:14.044Z,5.20
2023-05-13T23:12:00.599Z,4.87
2023-05-13T23:14:46.937Z,5.97
2023-05-13T23:17:33.609Z,5.70
2023-05-13T23:20:20.285Z,5.27
2023-05-13T23:23:06.730Z,5.27
2023-05-13T23:25:53.154Z,4.70
2023-05-13T23:28:39.329Z,4.70
2023-05-13T23:31:25.705Z,4.93
2023-05-13T23:34:12.246Z,4.67
2023-05-13T23:36:58.569Z,5.50
2023-05-13T23:39:45.067Z,5.50
2023-05-13T23:42:31.253Z,5.63
2023-05-13T23:45:17.692Z,4.77
2023-05-13T23:48:04.291Z,4.97
2023-05-13T23:50:50.632Z,5.50
2023-05-13T23:53:36.802Z,5.37
2023-05-13T23:56:23.468Z,5.63
2023-05-13T23:59:09.787Z,4.90
